sensor_id;sensor_type;location;lat;lon;timestamp;P1;durP1;ratioP1;P2;durP2;ratioP2
55190;SDS011;41070;50.360;18.742;2023-07-28T19:13:52;13.30;;;2.70;;
55190;SDS011;41070;50.360;18.742;2023-07-28T19:16:19;8.50;;;1.90;;
55190;SDS011;41070;50.360;18.742;2023-07-28T19:18:49;8.60;;;3.90;;
55190;SDS011;41070;50.360;18.742;2023-07-28T19:21:20;4.80;;;2.70;;
55190;SDS011;41070;50.360;18.742;2023-07-28T19:23:50;4.30;;;2.20;;
55190;SDS011;41070;50.360;18.742;2023-07-28T19:26:17;7.80;;;2.10;;
55190;SDS011;41070;50.360;18.742;2023-07-28T19:28:51;4.50;;;2.80;;
55190;SDS011;41070;50.360;18.742;2023-07-28T19:31:17;3.50;;;2.20;;
55190;SDS011;41070;50.360;18.742;2023-07-28T19:33:59;3.60;;;1.90;;
55190;SDS011;41070;50.360;18.742;2023-07-28T19:36:37;3.30;;;1.60;;
55190;SDS011;41070;50.360;18.742;2023-07-28T19:39:16;1.80;;;1.20;;
55190;SDS011;41070;50.360;18.742;2023-07-28T19:41:43;2.70;;;1.90;;
55190;SDS011;41070;50.360;18.742;2023-07-28T19:44:11;5.10;;;1.80;;
55190;SDS011;41070;50.360;18.742;2023-07-28T19:46:41;3.50;;;1.90;;
55190;SDS011;41070;50.360;18.742;2023-07-28T19:49:08;4.00;;;1.60;;
55190;SDS011;41070;50.360;18.742;2023-07-28T19:51:37;2.70;;;1.60;;
55190;SDS011;41070;50.360;18.742;2023-07-28T19:54:03;2.70;;;1.80;;
55190;SDS011;41070;50.360;18.742;2023-07-28T19:56:33;2.40;;;1.70;;
55190;SDS011;41070;50.360;18.742;2023-07-28T19:59:01;4.50;;;2.30;;
55190;SDS011;41070;50.360;18.742;2023-07-28T20:01:29;3.10;;;1.80;;
55190;SDS011;41070;50.360;18.742;2023-07-28T20:03:59;4.80;;;1.90;;
55190;SDS011;41070;50.360;18.742;2023-07-28T20:06:25;2.50;;;1.50;;
55190;SDS011;41070;50.360;18.742;2023-07-28T20:08:54;2.30;;;1.80;;
55190;SDS011;41070;50.360;18.742;2023-07-28T20:11:29;2.40;;;1.60;;
55190;SDS011;41070;50.360;18.742;2023-07-28T20:13:55;3.50;;;2.00;;
55190;SDS011;41070;50.360;18.742;2023-07-28T20:16:32;2.10;;;1.50;;
55190;SDS011;41070;50.360;18.742;2023-07-28T20:19:03;2.50;;;1.50;;
55190;SDS011;41070;50.360;18.742;2023-07-28T20:21:30;2.50;;;1.40;;
55190;SDS011;41070;50.360;18.742;2023-07-28T20:23:58;2.60;;;1.30;;
55190;SDS011;41070;50.360;18.742;2023-07-28T20:26:25;1.40;;;1.20;;
55190;SDS011;41070;50.360;18.742;2023-07-28T20:28:52;2.70;;;1.70;;
55190;SDS011;41070;50.360;18.742;2023-07-28T20:31:18;2.20;;;1.60;;
55190;SDS011;41070;50.360;18.742;2023-07-28T20:33:47;1.80;;;1.60;;
55190;SDS011;41070;50.360;18.742;2023-07-28T20:36:16;4.50;;;1.60;;
55190;SDS011;41070;50.360;18.742;2023-07-28T20:38:44;3.80;;;1.50;;
55190;SDS011;41070;50.360;18.742;2023-07-28T20:41:11;3.00;;;1.60;;
55190;SDS011;41070;50.360;18.742;2023-07-28T20:43:39;1.90;;;1.60;;
55190;SDS011;41070;50.360;18.742;2023-07-28T20:46:13;2.70;;;1.60;;
55190;SDS011;41070;50.360;18.742;2023-07-28T20:48:41;2.10;;;1.60;;
55190;SDS011;41070;50.360;18.742;2023-07-28T20:51:08;2.70;;;1.90;;
55190;SDS011;41070;50.360;18.742;2023-07-28T20:53:34;2.20;;;1.70;;
55190;SDS011;41070;50.360;18.742;2023-07-28T20:56:01;2.80;;;2.10;;
55190;SDS011;41070;50.360;18.742;2023-07-28T20:58:27;5.90;;;2.10;;
55190;SDS011;41070;50.360;18.742;2023-07-28T21:00:54;3.10;;;2.40;;
55190;SDS011;41070;50.360;18.742;2023-07-28T21:03:20;3.90;;;2.80;;
55190;SDS011;41070;50.360;18.742;2023-07-28T21:05:47;6.30;;;2.80;;
55190;SDS011;41070;50.360;18.742;2023-07-28T21:08:13;5.80;;;3.70;;
55190;SDS011;41070;50.360;18.742;2023-07-28T21:10:43;5.20;;;3.60;;
55190;SDS011;41070;50.360;18.742;2023-07-28T21:13:11;5.20;;;3.80;;
55190;SDS011;41070;50.360;18.742;2023-07-28T21:15:43;6.10;;;4.50;;
55190;SDS011;41070;50.360;18.742;2023-07-28T21:18:14;35.60;;;23.20;;
55190;SDS011;41070;50.360;18.742;2023-07-28T21:20:44;24.40;;;16.90;;
55190;SDS011;41070;50.360;18.742;2023-07-28T21:23:45;33.80;;;23.40;;
55190;SDS011;41070;50.360;18.742;2023-07-28T21:26:32;12.40;;;9.50;;
55190;SDS011;41070;50.360;18.742;2023-07-28T21:29:01;7.50;;;5.10;;
55190;SDS011;41070;50.360;18.742;2023-07-28T21:31:32;4.70;;;2.60;;
55190;SDS011;41070;50.360;18.742;2023-07-28T21:34:03;3.60;;;2.50;;
55190;SDS011;41070;50.360;18.742;2023-07-28T21:36:36;4.60;;;3.30;;
55190;SDS011;41070;50.360;18.742;2023-07-28T21:39:03;5.30;;;2.70;;
55190;SDS011;41070;50.360;18.742;2023-07-28T21:41:31;3.80;;;2.70;;
55190;SDS011;41070;50.360;18.742;2023-07-28T21:43:58;5.30;;;3.20;;
55190;SDS011;41070;50.360;18.742;2023-07-28T21:46:26;3.30;;;3.00;;
55190;SDS011;41070;50.360;18.742;2023-07-28T21:48:54;3.60;;;2.40;;
55190;SDS011;41070;50.360;18.742;2023-07-28T21:51:32;2.30;;;2.00;;
55190;SDS011;41070;50.360;18.742;2023-07-28T21:54:00;7.40;;;5.10;;
55190;SDS011;41070;50.360;18.742;2023-07-28T21:56:30;8.60;;;5.60;;
55190;SDS011;41070;50.360;18.742;2023-07-28T21:58:59;12.00;;;7.80;;
55190;SDS011;41070;50.360;18.742;2023-07-28T22:01:43;7.40;;;4.40;;
55190;SDS011;41070;50.360;18.742;2023-07-28T22:04:20;3.30;;;2.30;;
55190;SDS011;41070;50.360;18.742;2023-07-28T22:07:04;3.80;;;2.60;;
55190;SDS011;41070;50.360;18.742;2023-07-28T22:09:33;4.30;;;2.30;;
55190;SDS011;41070;50.360;18.742;2023-07-28T22:12:26;2.60;;;2.40;;
55190;SDS011;41070;50.360;18.742;2023-07-28T22:14:54;3.80;;;2.90;;
55190;SDS011;41070;50.360;18.742;2023-07-28T22:17:28;5.30;;;3.10;;
55190;SDS011;41070;50.360;18.742;2023-07-28T22:20:01;5.90;;;3.50;;
55190;SDS011;41070;50.360;18.742;2023-07-28T22:37:51;6.50;;;3.80;;
55190;SDS011;41070;50.360;18.742;2023-07-28T22:44:43;4.40;;;2.40;;
55190;SDS011;41070;50.360;18.742;2023-07-28T22:47:59;3.20;;;2.40;;
55190;SDS011;41070;50.360;18.742;2023-07-28T22:50:35;3.30;;;2.50;;
55190;SDS011;41070;50.360;18.742;2023-07-28T22:53:31;4.90;;;3.10;;
55190;SDS011;41070;50.360;18.742;2023-07-28T22:56:23;3.50;;;2.80;;
55190;SDS011;41070;50.360;18.742;2023-07-28T22:58:56;7.20;;;3.50;;
55190;SDS011;41070;50.360;18.742;2023-07-28T23:01:30;6.70;;;3.70;;
55190;SDS011;41070;50.360;18.742;2023-07-28T23:04:25;5.50;;;3.20;;
55190;SDS011;41070;50.360;18.742;2023-07-28T23:07:37;5.50;;;3.60;;
55190;SDS011;41070;50.360;18.742;2023-07-28T23:10:47;3.00;;;2.60;;
55190;SDS011;41070;50.360;18.742;2023-07-28T23:13:39;3.80;;;3.00;;
55190;SDS011;41070;50.360;18.742;2023-07-28T23:16:10;2.50;;;2.30;;
55190;SDS011;41070;50.360;18.742;2023-07-28T23:19:22;2.60;;;2.20;;
55190;SDS011;41070;50.360;18.742;2023-07-28T23:22:15;3.50;;;2.70;;
55190;SDS011;41070;50.360;18.742;2023-07-28T23:25:04;3.30;;;2.60;;
55190;SDS011;41070;50.360;18.742;2023-07-28T23:35:00;7.70;;;6.40;;
55190;SDS011;41070;50.360;18.742;2023-07-28T23:38:12;5.00;;;3.30;;
55190;SDS011;41070;50.360;18.742;2023-07-28T23:41:07;4.10;;;2.10;;
55190;SDS011;41070;50.360;18.742;2023-07-28T23:44:26;4.10;;;2.50;;
55190;SDS011;41070;50.360;18.742;2023-07-28T23:47:50;5.20;;;3.00;;
55190;SDS011;41070;50.360;18.742;2023-07-28T23:54:51;6.70;;;3.70;;
55190;SDS011;41070;50.360;18.742;2023-07-28T23:58:14;4.70;;;3.10;;
